sensor_id;sensor_type;location;lat;lon;timestamp;temperature;humidity
2893;DHT22;1456;51.840;12.184;2023-05-10T00:00:24;11.30;96.10
2893;DHT22;1456;51.840;12.184;2023-05-10T00:02:50;11.30;96.30
2893;DHT22;1456;51.840;12.184;2023-05-10T00:05:16;11.30;95.50
2893;DHT22;1456;51.840;12.184;2023-05-10T00:07:42;11.20;95.50
2893;DHT22;1456;51.840;12.184;2023-05-10T00:10:11;11.10;95.50
2893;DHT22;1456;51.840;12.184;2023-05-10T00:12:38;11.00;95.70
2893;DHT22;1456;51.840;12.184;2023-05-10T00:15:04;10.90;96.50
2893;DHT22;1456;51.840;12.184;2023-05-10T00:17:31;10.80;96.40
2893;DHT22;1456;51.840;12.184;2023-05-10T00:19:58;10.80;97.40
2893;DHT22;1456;51.840;12.184;2023-05-10T00:22:23;10.90;96.80
2893;DHT22;1456;51.840;12.184;2023-05-10T00:24:49;10.90;97.40
2893;DHT22;1456;51.840;12.184;2023-05-10T00:27:16;10.90;96.60
2893;DHT22;1456;51.840;12.184;2023-05-10T00:29:41;10.80;97.20
2893;DHT22;1456;51.840;12.184;2023-05-10T00:32:12;10.80;97.00
2893;DHT22;1456;51.840;12.184;2023-05-10T00:34:39;10.80;97.40
2893;DHT22;1456;51.840;12.184;2023-05-10T00:37:05;10.70;97.10
2893;DHT22;1456;51.840;12.184;2023-05-10T00:39:30;10.60;97.60
2893;DHT22;1456;51.840;12.184;2023-05-10T00:41:56;10.60;98.20
2893;DHT22;1456;51.840;12.184;2023-05-10T00:44:22;10.60;97.90
2893;DHT22;1456;51.840;12.184;2023-05-10T00:46:51;10.60;98.70
2893;DHT22;1456;51.840;12.184;2023-05-10T00:49:17;10.60;98.70
2893;DHT22;1456;51.840;12.184;2023-05-10T00:51:44;10.60;98.70
2893;DHT22;1456;51.840;12.184;2023-05-10T00:54:12;10.60;98.20
2893;DHT22;1456;51.840;12.184;2023-05-10T00:56:39;10.50;99.40
2893;DHT22;1456;51.840;12.184;2023-05-10T00:59:08;10.60;98.80
2893;DHT22;1456;51.840;12.184;2023-05-10T01:01:35;10.50;98.60
2893;DHT22;1456;51.840;12.184;2023-05-10T01:04:02;10.50;99.00
2893;DHT22;1456;51.840;12.184;2023-05-10T01:06:29;10.40;99.10
2893;DHT22;1456;51.840;12.184;2023-05-10T01:08:55;10.40;99.10
2893;DHT22;1456;51.840;12.184;2023-05-10T01:11:21;10.40;99.00
2893;DHT22;1456;51.840;12.184;2023-05-10T01:13:52;10.40;99.20
2893;DHT22;1456;51.840;12.184;2023-05-10T01:16:18;10.30;99.60
2893;DHT22;1456;51.840;12.184;2023-05-10T01:18:44;10.40;99.60
2893;DHT22;1456;51.840;12.184;2023-05-10T01:21:22;10.30;99.20
2893;DHT22;1456;51.840;12.184;2023-05-10T01:27:17;10.10;99.90
2893;DHT22;1456;51.840;12.184;2023-05-10T01:33:18;9.90;99.90
2893;DHT22;1456;51.840;12.184;2023-05-10T01:35:52;9.90;99.90
2893;DHT22;1456;51.840;12.184;2023-05-10T01:38:50;9.90;99.90
2893;DHT22;1456;51.840;12.184;2023-05-10T01:48:01;9.80;99.90
2893;DHT22;1456;51.840;12.184;2023-05-10T01:50:14;9.90;99.90
2893;DHT22;1456;51.840;12.184;2023-05-10T01:52:51;9.90;99.90
2893;DHT22;1456;51.840;12.184;2023-05-10T01:55:21;9.90;99.90
2893;DHT22;1456;51.840;12.184;2023-05-10T01:57:52;10.00;99.90
2893;DHT22;1456;51.840;12.184;2023-05-10T02:00:24;9.90;99.90
2893;DHT22;1456;51.840;12.184;2023-05-10T02:02:51;9.90;99.90
2893;DHT22;1456;51.840;12.184;2023-05-10T02:05:19;9.90;99.90
2893;DHT22;1456;51.840;12.184;2023-05-10T02:07:47;9.90;99.90
2893;DHT22;1456;51.840;12.184;2023-05-10T02:10:14;9.90;99.90
2893;DHT22;1456;51.840;12.184;2023-05-10T02:12:47;9.80;99.90
2893;DHT22;1456;51.840;12.184;2023-05-10T02:15:18;9.80;99.90
2893;DHT22;1456;51.840;12.184;2023-05-10T02:17:48;9.80;99.90
2893;DHT22;1456;51.840;12.184;2023-05-10T02:20:16;9.80;99.90
2893;DHT22;1456;51.840;12.184;2023-05-10T02:22:43;9.80;99.90
2893;DHT22;1456;51.840;12.184;2023-05-10T02:25:11;9.80;99.90
2893;DHT22;1456;51.840;12.184;2023-05-10T02:27:38;9.70;99.90
2893;DHT22;1456;51.840;12.184;2023-05-10T02:30:06;9.70;99.90
2893;DHT22;1456;51.840;12.184;2023-05-10T02:32:34;9.70;99.90
2893;DHT22;1456;51.840;12.184;2023-05-10T02:35:03;9.70;99.90
2893;DHT22;1456;51.840;12.184;2023-05-10T02:37:29;9.60;99.90
2893;DHT22;1456;51.840;12.184;2023-05-10T02:39:56;9.60;99.90
2893;DHT22;1456;51.840;12.184;2023-05-10T02:42:27;9.60;99.90
2893;DHT22;1456;51.840;12.184;2023-05-10T02:44:59;9.60;99.90
2893;DHT22;1456;51.840;12.184;2023-05-10T02:47:26;9.50;99.90
2893;DHT22;1456;51.840;12.184;2023-05-10T02:49:53;9.50;99.90
2893;DHT22;1456;51.840;12.184;2023-05-10T02:52:23;9.50;99.90
2893;DHT22;1456;51.840;12.184;2023-05-10T02:54:55;9.50;99.90
2893;DHT22;1456;51.840;12.184;2023-05-10T02:57:33;9.50;99.90
2893;DHT22;1456;51.840;12.184;2023-05-10T03:00:02;9.50;99.90
2893;DHT22;1456;51.840;12.184;2023-05-10T03:02:31;9.50;99.90
2893;DHT22;1456;51.840;12.184;2023-05-10T03:04:57;9.50;99.90
2893;DHT22;1456;51.840;12.184;2023-05-10T03:07:24;9.40;99.90
2893;DHT22;1456;51.840;12.184;2023-05-10T03:09:50;9.40;99.90
2893;DHT22;1456;51.840;12.184;2023-05-10T03:18:01;9.40;99.90
2893;DHT22;1456;51.840;12.184;2023-05-10T03:20:41;9.40;99.90
2893;DHT22;1456;51.840;12.184;2023-05-10T03:25:44;9.30;99.90
2893;DHT22;1456;51.840;12.184;2023-05-10T03:28:12;9.30;99.90
2893;DHT22;1456;51.840;12.184;2023-05-10T03:30:41;9.30;99.90
2893;DHT22;1456;51.840;12.184;2023-05-10T03:33:08;9.30;99.90
2893;DHT22;1456;51.840;12.184;2023-05-10T03:35:36;9.20;99.90
2893;DHT22;1456;51.840;12.184;2023-05-10T03:38:03;9.30;99.90
2893;DHT22;1456;51.840;12.184;2023-05-10T03:40:29;9.30;99.90
2893;DHT22;1456;51.840;12.184;2023-05-10T03:42:59;9.30;99.90
2893;DHT22;1456;51.840;12.184;2023-05-10T03:45:26;9.30;99.90
2893;DHT22;1456;51.840;12.184;2023-05-10T03:47:54;9.40;99.90
2893;DHT22;1456;51.840;12.184;2023-05-10T03:50:20;9.40;99.90
2893;DHT22;1456;51.840;12.184;2023-05-10T03:52:47;9.40;99.90
2893;DHT22;1456;51.840;12.184;2023-05-10T03:55:14;9.50;99.90
2893;DHT22;1456;51.840;12.184;2023-05-10T03:57:40;9.50;99.90
2893;DHT22;1456;51.840;12.184;2023-05-10T04:00:06;9.50;99.90
2893;DHT22;1456;51.840;12.184;2023-05-10T04:02:32;9.60;99.90
2893;DHT22;1456;51.840;12.184;2023-05-10T04:05:04;9.50;99.90
2893;DHT22;1456;51.840;12.184;2023-05-10T04:07:30;9.60;99.90
2893;DHT22;1456;51.840;12.184;2023-05-10T04:09:56;9.60;99.90
2893;DHT22;1456;51.840;12.184;2023-05-10T04:12:21;9.70;99.90
2893;DHT22;1456;51.840;12.184;2023-05-10T04:14:49;9.70;99.90
2893;DHT22;1456;51.840;12.184;2023-05-10T04:17:14;9.80;99.90
2893;DHT22;1456;51.840;12.184;2023-05-10T04:19:40;9.80;99.90
2893;DHT22;1456;51.840;12.184;2023-05-10T04:22:07;9.80;99.90
2893;DHT22;1456;51.840;12.184;2023-05-10T04:24:33;9.90;99.90
2893;DHT22;1456;51.840;12.184;2023-05-10T04:26:59;9.90;99.90
2893;DHT22;1456;51.840;12.184;2023-05-10T04:29:25;10.00;99.90
2893;DHT22;1456;51.840;12.184;2023-05-10T04:31:52;10.00;99.90
2893;DHT22;1456;51.840;12.184;2023-05-10T04:34:21;10.10;99.90
2893;DHT22;1456;51.840;12.184;2023-05-10T04:36:46;10.30;99.90
2893;DHT22;1456;51.840;12.184;2023-05-10T04:39:15;10.40;99.90
2893;DHT22;1456;51.840;12.184;2023-05-10T04:41:40;10.50;99.90
2893;DHT22;1456;51.840;12.184;2023-05-10T04:44:06;10.60;99.90
2893;DHT22;1456;51.840;12.184;2023-05-10T04:46:32;10.80;99.90
2893;DHT22;1456;51.840;12.184;2023-05-10T04:48:58;10.90;99.90
2893;DHT22;1456;51.840;12.184;2023-05-10T04:51:23;10.90;99.90
2893;DHT22;1456;51.840;12.184;2023-05-10T04:53:49;10.90;99.90
2893;DHT22;1456;51.840;12.184;2023-05-10T04:56:15;11.00;99.90
2893;DHT22;1456;51.840;12.184;2023-05-10T04:58:44;11.10;99.90
2893;DHT22;1456;51.840;12.184;2023-05-10T05:01:10;11.30;99.90
2893;DHT22;1456;51.840;12.184;2023-05-10T05:03:37;11.50;99.90
2893;DHT22;1456;51.840;12.184;2023-05-10T05:06:07;11.50;99.90
2893;DHT22;1456;51.840;12.184;2023-05-10T05:08:33;11.60;99.90
2893;DHT22;1456;51.840;12.184;2023-05-10T05:10:58;11.70;99.90
2893;DHT22;1456;51.840;12.184;2023-05-10T05:13:24;11.80;99.90
2893;DHT22;1456;51.840;12.184;2023-05-10T05:15:50;11.90;99.80
2893;DHT22;1456;51.840;12.184;2023-05-10T05:18:16;12.00;99.70
2893;DHT22;1456;51.840;12.184;2023-05-10T05:20:43;12.10;99.70
2893;DHT22;1456;51.840;12.184;2023-05-10T05:23:09;12.20;99.90
2893;DHT22;1456;51.840;12.184;2023-05-10T05:25:35;12.50;99.90
2893;DHT22;1456;51.840;12.184;2023-05-10T05:28:01;12.60;98.90
2893;DHT22;1456;51.840;12.184;2023-05-10T05:30:26;12.80;98.80
2893;DHT22;1456;51.840;12.184;2023-05-10T05:32:57;12.80;98.40
2893;DHT22;1456;51.840;12.184;2023-05-10T05:35:23;12.90;99.00
2893;DHT22;1456;51.840;12.184;2023-05-10T05:37:51;13.10;98.80
2893;DHT22;1456;51.840;12.184;2023-05-10T05:40:18;13.20;98.10
2893;DHT22;1456;51.840;12.184;2023-05-10T05:42:43;13.50;98.10
2893;DHT22;1456;51.840;12.184;2023-05-10T05:45:10;13.70;97.90
2893;DHT22;1456;51.840;12.184;2023-05-10T05:47:39;14.00;98.00
2893;DHT22;1456;51.840;12.184;2023-05-10T05:50:09;14.30;97.30
2893;DHT22;1456;51.840;12.184;2023-05-10T05:52:35;14.60;97.20
2893;DHT22;1456;51.840;12.184;2023-05-10T05:55:01;14.80;96.30
2893;DHT22;1456;51.840;12.184;2023-05-10T05:57:38;15.10;96.80
2893;DHT22;1456;51.840;12.184;2023-05-10T06:00:04;15.40;96.00
2893;DHT22;1456;51.840;12.184;2023-05-10T06:02:32;15.60;95.10
2893;DHT22;1456;51.840;12.184;2023-05-10T06:04:59;15.90;95.40
2893;DHT22;1456;51.840;12.184;2023-05-10T06:07:26;16.20;95.40
2893;DHT22;1456;51.840;12.184;2023-05-10T06:09:53;16.40;94.60
2893;DHT22;1456;51.840;12.184;2023-05-10T06:12:20;16.60;94.80
2893;DHT22;1456;51.840;12.184;2023-05-10T06:14:46;16.90;94.30
2893;DHT22;1456;51.840;12.184;2023-05-10T06:17:12;17.30;94.90
2893;DHT22;1456;51.840;12.184;2023-05-10T06:19:37;17.70;93.30
2893;DHT22;1456;51.840;12.184;2023-05-10T06:22:03;17.40;92.80
2893;DHT22;1456;51.840;12.184;2023-05-10T06:24:29;17.50;93.90
2893;DHT22;1456;51.840;12.184;2023-05-10T06:26:59;17.90;92.40
2893;DHT22;1456;51.840;12.184;2023-05-10T06:29:27;18.00;92.40
2893;DHT22;1456;51.840;12.184;2023-05-10T06:31:54;18.10;91.90
2893;DHT22;1456;51.840;12.184;2023-05-10T06:34:21;18.10;91.60
2893;DHT22;1456;51.840;12.184;2023-05-10T06:36:46;18.10;91.30
2893;DHT22;1456;51.840;12.184;2023-05-10T06:39:12;18.10;90.90
2893;DHT22;1456;51.840;12.184;2023-05-10T06:41:38;18.10;91.20
2893;DHT22;1456;51.840;12.184;2023-05-10T06:44:03;18.20;90.60
2893;DHT22;1456;51.840;12.184;2023-05-10T06:46:34;18.40;90.90
2893;DHT22;1456;51.840;12.184;2023-05-10T06:49:03;18.60;91.40
2893;DHT22;1456;51.840;12.184;2023-05-10T06:51:31;18.90;91.60
2893;DHT22;1456;51.840;12.184;2023-05-10T06:53:56;19.10;90.20
2893;DHT22;1456;51.840;12.184;2023-05-10T06:56:24;19.30;90.60
2893;DHT22;1456;51.840;12.184;2023-05-10T06:58:51;19.20;90.10
2893;DHT22;1456;51.840;12.184;2023-05-10T07:01:17;18.80;89.50
2893;DHT22;1456;51.840;12.184;2023-05-10T07:03:43;18.90;90.70
2893;DHT22;1456;51.840;12.184;2023-05-10T07:06:08;19.00;90.10
2893;DHT22;1456;51.840;12.184;2023-05-10T07:08:35;18.10;89.70
2893;DHT22;1456;51.840;12.184;2023-05-10T07:11:05;18.60;91.20
2893;DHT22;1456;51.840;12.184;2023-05-10T07:13:34;19.20;90.80
2893;DHT22;1456;51.840;12.184;2023-05-10T07:16:01;19.70;90.10
2893;DHT22;1456;51.840;12.184;2023-05-10T07:18:27;19.90;91.00
2893;DHT22;1456;51.840;12.184;2023-05-10T07:20:54;19.60;90.70
2893;DHT22;1456;51.840;12.184;2023-05-10T07:23:19;19.60;90.10
2893;DHT22;1456;51.840;12.184;2023-05-10T07:25:47;19.70;89.30
2893;DHT22;1456;51.840;12.184;2023-05-10T07:28:14;18.90;86.70
2893;DHT22;1456;51.840;12.184;2023-05-10T07:30:40;18.60;89.20
2893;DHT22;1456;51.840;12.184;2023-05-10T07:33:06;18.70;91.10
2893;DHT22;1456;51.840;12.184;2023-05-10T07:35:32;19.10;90.70
2893;DHT22;1456;51.840;12.184;2023-05-10T07:37:58;18.90;89.30
2893;DHT22;1456;51.840;12.184;2023-05-10T07:40:24;18.90;90.90
2893;DHT22;1456;51.840;12.184;2023-05-10T07:42:52;19.20;90.00
2893;DHT22;1456;51.840;12.184;2023-05-10T07:45:21;19.30;91.10
2893;DHT22;1456;51.840;12.184;2023-05-10T07:47:47;19.40;89.60
2893;DHT22;1456;51.840;12.184;2023-05-10T07:50:14;19.40;88.60
2893;DHT22;1456;51.840;12.184;2023-05-10T07:52:40;19.80;90.20
2893;DHT22;1456;51.840;12.184;2023-05-10T07:55:06;20.10;90.80
2893;DHT22;1456;51.840;12.184;2023-05-10T07:57:34;20.60;90.50
2893;DHT22;1456;51.840;12.184;2023-05-10T08:00:02;20.60;90.50
2893;DHT22;1456;51.840;12.184;2023-05-10T08:02:28;21.50;90.20
2893;DHT22;1456;51.840;12.184;2023-05-10T08:04:54;21.60;88.10
2893;DHT22;1456;51.840;12.184;2023-05-10T08:07:21;21.80;87.40
2893;DHT22;1456;51.840;12.184;2023-05-10T08:09:47;22.10;89.30
2893;DHT22;1456;51.840;12.184;2023-05-10T08:12:12;22.60;84.60
2893;DHT22;1456;51.840;12.184;2023-05-10T08:14:38;23.20;87.70
2893;DHT22;1456;51.840;12.184;2023-05-10T08:17:04;23.80;86.00
2893;DHT22;1456;51.840;12.184;2023-05-10T08:19:29;24.20;85.00
2893;DHT22;1456;51.840;12.184;2023-05-10T08:21:55;24.30;83.90
2893;DHT22;1456;51.840;12.184;2023-05-10T08:24:21;24.20;85.80
2893;DHT22;1456;51.840;12.184;2023-05-10T08:26:47;23.80;84.40
2893;DHT22;1456;51.840;12.184;2023-05-10T08:29:14;23.10;80.80
2893;DHT22;1456;51.840;12.184;2023-05-10T08:31:40;22.40;84.80
2893;DHT22;1456;51.840;12.184;2023-05-10T08:34:06;22.80;85.80
2893;DHT22;1456;51.840;12.184;2023-05-10T08:36:31;22.80;86.90
2893;DHT22;1456;51.840;12.184;2023-05-10T08:38:57;23.10;87.90
2893;DHT22;1456;51.840;12.184;2023-05-10T08:41:24;23.40;85.30
2893;DHT22;1456;51.840;12.184;2023-05-10T08:43:52;23.40;84.30
2893;DHT22;1456;51.840;12.184;2023-05-10T08:46:19;23.60;84.70
2893;DHT22;1456;51.840;12.184;2023-05-10T08:48:46;23.70;83.60
2893;DHT22;1456;51.840;12.184;2023-05-10T08:51:18;23.10;83.50
2893;DHT22;1456;51.840;12.184;2023-05-10T08:53:45;22.90;86.40
2893;DHT22;1456;51.840;12.184;2023-05-10T08:56:13;22.70;85.10
2893;DHT22;1456;51.840;12.184;2023-05-10T08:58:41;22.00;86.00
2893;DHT22;1456;51.840;12.184;2023-05-10T09:01:07;22.00;88.00
2893;DHT22;1456;51.840;12.184;2023-05-10T09:03:35;22.20;87.80
2893;DHT22;1456;51.840;12.184;2023-05-10T09:06:11;22.50;90.80
2893;DHT22;1456;51.840;12.184;2023-05-10T09:08:38;22.50;88.00
2893;DHT22;1456;51.840;12.184;2023-05-10T09:11:05;22.80;90.50
2893;DHT22;1456;51.840;12.184;2023-05-10T09:13:32;22.70;86.80
2893;DHT22;1456;51.840;12.184;2023-05-10T09:15:57;22.80;88.70
2893;DHT22;1456;51.840;12.184;2023-05-10T09:18:23;22.90;87.90
2893;DHT22;1456;51.840;12.184;2023-05-10T09:20:52;23.30;90.60
2893;DHT22;1456;51.840;12.184;2023-05-10T09:23:25;23.60;90.30
2893;DHT22;1456;51.840;12.184;2023-05-10T09:26:04;23.80;85.60
2893;DHT22;1456;51.840;12.184;2023-05-10T09:28:50;23.60;84.40
2893;DHT22;1456;51.840;12.184;2023-05-10T09:31:16;23.90;85.60
2893;DHT22;1456;51.840;12.184;2023-05-10T09:33:45;24.00;88.00
2893;DHT22;1456;51.840;12.184;2023-05-10T09:36:11;24.50;88.00
2893;DHT22;1456;51.840;12.184;2023-05-10T09:38:49;23.90;87.40
2893;DHT22;1456;51.840;12.184;2023-05-10T09:41:19;23.60;87.00
2893;DHT22;1456;51.840;12.184;2023-05-10T09:43:46;23.30;86.90
2893;DHT22;1456;51.840;12.184;2023-05-10T09:46:11;23.60;89.90
2893;DHT22;1456;51.840;12.184;2023-05-10T09:48:46;23.60;86.50
2893;DHT22;1456;51.840;12.184;2023-05-10T09:51:27;23.50;88.70
2893;DHT22;1456;51.840;12.184;2023-05-10T09:54:13;23.30;89.10
2893;DHT22;1456;51.840;12.184;2023-05-10T09:56:41;22.50;88.20
2893;DHT22;1456;51.840;12.184;2023-05-10T09:59:09;22.30;89.00
2893;DHT22;1456;51.840;12.184;2023-05-10T10:01:35;22.00;89.00
2893;DHT22;1456;51.840;12.184;2023-05-10T10:04:05;21.90;89.90
2893;DHT22;1456;51.840;12.184;2023-05-10T10:06:40;21.40;90.60
2893;DHT22;1456;51.840;12.184;2023-05-10T10:09:07;21.10;90.70
2893;DHT22;1456;51.840;12.184;2023-05-10T10:11:35;21.30;91.60
2893;DHT22;1456;51.840;12.184;2023-05-10T10:14:02;21.80;90.30
2893;DHT22;1456;51.840;12.184;2023-05-10T10:16:32;22.00;91.20
2893;DHT22;1456;51.840;12.184;2023-05-10T10:19:03;22.20;90.40
2893;DHT22;1456;51.840;12.184;2023-05-10T10:21:29;21.80;91.70
2893;DHT22;1456;51.840;12.184;2023-05-10T10:23:56;21.80;90.90
2893;DHT22;1456;51.840;12.184;2023-05-10T10:26:22;21.30;91.00
2893;DHT22;1456;51.840;12.184;2023-05-10T10:28:56;20.80;91.40
2893;DHT22;1456;51.840;12.184;2023-05-10T10:34:25;20.10;92.90
2893;DHT22;1456;51.840;12.184;2023-05-10T10:36:54;19.80;93.30
2893;DHT22;1456;51.840;12.184;2023-05-10T10:39:20;19.50;93.30
2893;DHT22;1456;51.840;12.184;2023-05-10T10:41:56;19.40;94.40
2893;DHT22;1456;51.840;12.184;2023-05-10T10:55:10;19.10;96.00
2893;DHT22;1456;51.840;12.184;2023-05-10T10:57:55;19.10;96.00
2893;DHT22;1456;51.840;12.184;2023-05-10T11:00:33;19.30;96.80
2893;DHT22;1456;51.840;12.184;2023-05-10T11:03:11;19.20;97.10
2893;DHT22;1456;51.840;12.184;2023-05-10T11:05:43;18.90;97.20
2893;DHT22;1456;51.840;12.184;2023-05-10T11:08:31;19.00;97.80
2893;DHT22;1456;51.840;12.184;2023-05-10T11:13:43;19.20;98.40
2893;DHT22;1456;51.840;12.184;2023-05-10T11:21:18;18.50;99.90
2893;DHT22;1456;51.840;12.184;2023-05-10T11:26:12;17.60;99.90
2893;DHT22;1456;51.840;12.184;2023-05-10T11:28:48;17.10;99.90
2893;DHT22;1456;51.840;12.184;2023-05-10T11:31:15;16.70;99.90
2893;DHT22;1456;51.840;12.184;2023-05-10T11:33:50;16.70;99.90
2893;DHT22;1456;51.840;12.184;2023-05-10T11:36:27;16.40;99.90
2893;DHT22;1456;51.840;12.184;2023-05-10T11:38:55;16.30;99.90
2893;DHT22;1456;51.840;12.184;2023-05-10T11:41:22;16.10;99.90
2893;DHT22;1456;51.840;12.184;2023-05-10T11:43:52;16.00;99.90
2893;DHT22;1456;51.840;12.184;2023-05-10T11:46:23;16.10;99.90
2893;DHT22;1456;51.840;12.184;2023-05-10T11:48:52;16.30;99.90
2893;DHT22;1456;51.840;12.184;2023-05-10T11:51:24;16.30;99.90
2893;DHT22;1456;51.840;12.184;2023-05-10T11:53:54;16.20;99.90
2893;DHT22;1456;51.840;12.184;2023-05-10T11:56:20;16.10;99.90
2893;DHT22;1456;51.840;12.184;2023-05-10T11:58:55;16.20;99.90
2893;DHT22;1456;51.840;12.184;2023-05-10T12:01:22;16.40;99.90
2893;DHT22;1456;51.840;12.184;2023-05-10T12:03:50;16.20;99.90
2893;DHT22;1456;51.840;12.184;2023-05-10T12:06:18;16.10;99.90
2893;DHT22;1456;51.840;12.184;2023-05-10T12:08:45;16.00;99.90
2893;DHT22;1456;51.840;12.184;2023-05-10T12:11:12;16.10;99.90
2893;DHT22;1456;51.840;12.184;2023-05-10T12:13:39;16.30;99.90
2893;DHT22;1456;51.840;12.184;2023-05-10T12:16:22;16.20;99.90
2893;DHT22;1456;51.840;12.184;2023-05-10T12:18:52;16.00;99.90
2893;DHT22;1456;51.840;12.184;2023-05-10T12:21:19;15.90;99.90
2893;DHT22;1456;51.840;12.184;2023-05-10T12:23:46;16.00;99.90
2893;DHT22;1456;51.840;12.184;2023-05-10T12:26:14;16.10;99.90
2893;DHT22;1456;51.840;12.184;2023-05-10T12:28:39;16.40;99.90
2893;DHT22;1456;51.840;12.184;2023-05-10T12:31:06;16.50;99.90
2893;DHT22;1456;51.840;12.184;2023-05-10T12:33:38;16.80;99.90
2893;DHT22;1456;51.840;12.184;2023-05-10T12:36:05;17.00;99.90
2893;DHT22;1456;51.840;12.184;2023-05-10T12:38:33;17.30;99.90
2893;DHT22;1456;51.840;12.184;2023-05-10T12:41:04;17.50;99.90
2893;DHT22;1456;51.840;12.184;2023-05-10T12:43:31;17.50;99.90
2893;DHT22;1456;51.840;12.184;2023-05-10T12:45:57;17.70;99.90
2893;DHT22;1456;51.840;12.184;2023-05-10T12:48:22;17.90;99.90
2893;DHT22;1456;51.840;12.184;2023-05-10T12:50:48;18.10;99.90
2893;DHT22;1456;51.840;12.184;2023-05-10T12:53:14;17.90;99.90
2893;DHT22;1456;51.840;12.184;2023-05-10T12:55:45;17.90;99.90
2893;DHT22;1456;51.840;12.184;2023-05-10T12:58:10;17.90;99.90
2893;DHT22;1456;51.840;12.184;2023-05-10T13:00:37;17.90;99.90
2893;DHT22;1456;51.840;12.184;2023-05-10T13:03:04;18.10;99.90
2893;DHT22;1456;51.840;12.184;2023-05-10T13:05:33;18.30;99.90
2893;DHT22;1456;51.840;12.184;2023-05-10T13:07:58;18.40;99.90
2893;DHT22;1456;51.840;12.184;2023-05-10T13:10:25;18.90;99.90
2893;DHT22;1456;51.840;12.184;2023-05-10T13:12:51;19.10;99.90
2893;DHT22;1456;51.840;12.184;2023-05-10T13:15:17;19.60;99.90
2893;DHT22;1456;51.840;12.184;2023-05-10T13:17:43;19.60;99.90
2893;DHT22;1456;51.840;12.184;2023-05-10T13:20:10;19.60;99.90
2893;DHT22;1456;51.840;12.184;2023-05-10T13:22:36;19.40;99.90
2893;DHT22;1456;51.840;12.184;2023-05-10T13:25:02;19.20;99.90
2893;DHT22;1456;51.840;12.184;2023-05-10T13:27:29;19.20;99.90
2893;DHT22;1456;51.840;12.184;2023-05-10T13:29:54;19.00;99.90
2893;DHT22;1456;51.840;12.184;2023-05-10T13:32:22;19.10;99.90
2893;DHT22;1456;51.840;12.184;2023-05-10T13:34:47;18.80;99.90
2893;DHT22;1456;51.840;12.184;2023-05-10T13:37:13;18.90;99.90
2893;DHT22;1456;51.840;12.184;2023-05-10T13:39:39;18.70;99.90
2893;DHT22;1456;51.840;12.184;2023-05-10T13:42:04;18.70;99.90
2893;DHT22;1456;51.840;12.184;2023-05-10T13:44:30;18.60;99.90
2893;DHT22;1456;51.840;12.184;2023-05-10T13:46:56;18.60;99.90
2893;DHT22;1456;51.840;12.184;2023-05-10T13:49:22;18.40;99.90
2893;DHT22;1456;51.840;12.184;2023-05-10T13:51:50;18.20;99.90
2893;DHT22;1456;51.840;12.184;2023-05-10T13:54:16;17.80;99.90
2893;DHT22;1456;51.840;12.184;2023-05-10T13:56:45;17.50;99.90
2893;DHT22;1456;51.840;12.184;2023-05-10T13:59:12;17.30;99.90
2893;DHT22;1456;51.840;12.184;2023-05-10T14:01:39;17.00;99.90
2893;DHT22;1456;51.840;12.184;2023-05-10T14:04:05;16.80;99.90
2893;DHT22;1456;51.840;12.184;2023-05-10T14:06:31;17.10;99.90
2893;DHT22;1456;51.840;12.184;2023-05-10T14:08:58;17.30;99.90
2893;DHT22;1456;51.840;12.184;2023-05-10T14:11:24;17.30;99.90
2893;DHT22;1456;51.840;12.184;2023-05-10T14:13:51;17.30;99.90
2893;DHT22;1456;51.840;12.184;2023-05-10T14:16:20;17.50;99.90
2893;DHT22;1456;51.840;12.184;2023-05-10T14:18:46;17.80;99.90
2893;DHT22;1456;51.840;12.184;2023-05-10T14:21:12;17.90;99.90
2893;DHT22;1456;51.840;12.184;2023-05-10T14:23:39;17.90;99.90
2893;DHT22;1456;51.840;12.184;2023-05-10T14:26:05;18.10;99.90
2893;DHT22;1456;51.840;12.184;2023-05-10T14:28:31;18.10;99.90
2893;DHT22;1456;51.840;12.184;2023-05-10T14:30:59;17.90;99.90
2893;DHT22;1456;51.840;12.184;2023-05-10T14:33:25;17.80;99.90
2893;DHT22;1456;51.840;12.184;2023-05-10T14:35:51;17.80;99.90
2893;DHT22;1456;51.840;12.184;2023-05-10T14:38:17;17.90;99.90
2893;DHT22;1456;51.840;12.184;2023-05-10T14:40:43;17.80;99.90
2893;DHT22;1456;51.840;12.184;2023-05-10T14:43:08;17.50;99.90
2893;DHT22;1456;51.840;12.184;2023-05-10T14:45:34;17.10;99.90
2893;DHT22;1456;51.840;12.184;2023-05-10T14:48:00;16.90;99.90
2893;DHT22;1456;51.840;12.184;2023-05-10T14:50:26;16.90;99.90
2893;DHT22;1456;51.840;12.184;2023-05-10T14:52:52;16.90;99.90
2893;DHT22;1456;51.840;12.184;2023-05-10T14:55:19;17.10;99.90
2893;DHT22;1456;51.840;12.184;2023-05-10T14:57:44;17.10;99.90
2893;DHT22;1456;51.840;12.184;2023-05-10T15:00:13;17.20;99.90
2893;DHT22;1456;51.840;12.184;2023-05-10T15:02:40;17.30;99.90
2893;DHT22;1456;51.840;12.184;2023-05-10T15:05:07;17.50;99.90
2893;DHT22;1456;51.840;12.184;2023-05-10T15:07:33;17.70;99.90
2893;DHT22;1456;51.840;12.184;2023-05-10T15:10:01;17.60;99.90
2893;DHT22;1456;51.840;12.184;2023-05-10T15:12:40;17.40;99.90
2893;DHT22;1456;51.840;12.184;2023-05-10T15:15:07;17.30;99.90
2893;DHT22;1456;51.840;12.184;2023-05-10T15:17:40;17.40;99.90
2893;DHT22;1456;51.840;12.184;2023-05-10T15:20:14;17.30;99.90
2893;DHT22;1456;51.840;12.184;2023-05-10T15:22:41;17.40;99.90
2893;DHT22;1456;51.840;12.184;2023-05-10T15:25:07;17.40;99.90
2893;DHT22;1456;51.840;12.184;2023-05-10T15:27:33;17.40;99.90
2893;DHT22;1456;51.840;12.184;2023-05-10T15:29:59;17.50;99.90
2893;DHT22;1456;51.840;12.184;2023-05-10T15:32:25;17.40;99.90
2893;DHT22;1456;51.840;12.184;2023-05-10T15:34:51;17.50;99.90
2893;DHT22;1456;51.840;12.184;2023-05-10T15:37:19;17.60;99.90
2893;DHT22;1456;51.840;12.184;2023-05-10T15:39:50;17.50;99.90
2893;DHT22;1456;51.840;12.184;2023-05-10T15:42:21;17.50;99.90
2893;DHT22;1456;51.840;12.184;2023-05-10T15:44:49;17.50;99.90
2893;DHT22;1456;51.840;12.184;2023-05-10T15:47:15;17.60;99.90
2893;DHT22;1456;51.840;12.184;2023-05-10T15:49:41;17.60;99.90
2893;DHT22;1456;51.840;12.184;2023-05-10T15:52:06;17.60;99.90
2893;DHT22;1456;51.840;12.184;2023-05-10T15:54:32;17.60;99.90
2893;DHT22;1456;51.840;12.184;2023-05-10T15:56:58;17.90;99.90
2893;DHT22;1456;51.840;12.184;2023-05-10T15:59:24;17.90;99.90
2893;DHT22;1456;51.840;12.184;2023-05-10T16:01:50;18.00;99.90
2893;DHT22;1456;51.840;12.184;2023-05-10T16:04:18;17.90;99.90
2893;DHT22;1456;51.840;12.184;2023-05-10T16:06:44;17.80;99.90
2893;DHT22;1456;51.840;12.184;2023-05-10T16:09:11;17.80;99.90
2893;DHT22;1456;51.840;12.184;2023-05-10T16:11:37;17.80;99.90
2893;DHT22;1456;51.840;12.184;2023-05-10T16:14:02;17.80;99.90
2893;DHT22;1456;51.840;12.184;2023-05-10T16:16:29;17.90;99.90
2893;DHT22;1456;51.840;12.184;2023-05-10T16:18:56;18.10;99.90
2893;DHT22;1456;51.840;12.184;2023-05-10T16:21:24;18.20;99.90
2893;DHT22;1456;51.840;12.184;2023-05-10T16:23:50;18.20;99.90
2893;DHT22;1456;51.840;12.184;2023-05-10T16:26:15;18.00;99.90
2893;DHT22;1456;51.840;12.184;2023-05-10T16:28:42;17.70;99.90
2893;DHT22;1456;51.840;12.184;2023-05-10T16:31:14;17.60;99.90
2893;DHT22;1456;51.840;12.184;2023-05-10T16:33:40;17.60;99.90
2893;DHT22;1456;51.840;12.184;2023-05-10T16:36:08;17.50;99.90
2893;DHT22;1456;51.840;12.184;2023-05-10T16:38:35;17.40;99.90